Time;durP1;ratioP1;P1;durP2;ratioP2;P2;SDS_P1;SDS_P2;PMS_P1;PMS_P2;Temp;Humidity;BMP_temperature;BMP_pressure;BME280_temperature;BME280_humidity;BME280_pressure;Samples;Min_cycle;Max_cycle;Signal;HPM_P1;HPM_P2
2023/07/31 00:01:50;;;;;;;2.53;0.87;;;;;;;25.75;46.77;98239.31;5013557;28;20541;-85
2023/07/31 00:04:16;;;;;;;1.60;0.90;;;;;;;25.65;47.37;98240.47;5008940;28;20190;-85
2023/07/31 00:06:41;;;;;;;3.03;0.70;;;;;;;25.71;46.98;98246.91;5013503;28;20189;-85
2023/07/31 00:09:06;;;;;;;1.30;0.53;;;;;;;25.76;47.21;98243.66;5012774;28;20181;-85
2023/07/31 00:11:33;;;;;;;2.17;0.77;;;;;;;25.86;47.22;98247.66;5013680;28;20254;-85
2023/07/31 00:14:00;;;;;;;3.47;1.00;;;;;;;25.98;47.04;98237.97;5012439;28;20619;-85
2023/07/31 00:16:26;;;;;;;5.63;1.00;;;;;;;26.17;46.46;98253.41;5012463;28;20167;-85
2023/07/31 00:18:52;;;;;;;1.63;0.60;;;;;;;26.40;45.74;98245.00;5013844;28;20265;-85
2023/07/31 00:21:19;;;;;;;1.40;0.60;;;;;;;26.58;45.09;98252.47;5012401;28;20214;-85
2023/07/31 00:23:46;;;;;;;2.73;0.70;;;;;;;26.69;44.56;98259.94;5013228;28;20182;-85
2023/07/31 00:26:11;;;;;;;2.00;0.73;;;;;;;26.73;44.52;98266.56;5013572;28;20264;-85
2023/07/31 00:28:38;;;;;;;1.77;0.70;;;;;;;26.84;44.34;98274.06;5013267;28;20250;-85
2023/07/31 00:31:04;;;;;;;2.33;0.80;;;;;;;26.75;45.28;98280.66;5013083;28;20190;-85
2023/07/31 00:33:31;;;;;;;0.90;0.40;;;;;;;26.75;45.00;98286.03;5012300;28;20179;-85
2023/07/31 00:35:57;;;;;;;2.27;1.17;;;;;;;26.70;45.46;98288.50;5013182;28;20186;-85
2023/07/31 00:38:22;;;;;;;2.30;0.60;;;;;;;26.66;45.94;98287.25;5013218;28;20175;-84
2023/07/31 00:40:47;;;;;;;2.73;0.73;;;;;;;26.63;45.72;98299.22;5013003;28;20282;-85
2023/07/31 00:43:14;;;;;;;2.43;0.80;;;;;;;26.64;45.78;98295.53;5012161;28;20240;-85
2023/07/31 00:45:40;;;;;;;1.13;0.50;;;;;;;26.69;46.01;98308.34;5013022;28;20178;-85
2023/07/31 00:48:07;;;;;;;1.47;0.50;;;;;;;26.70;46.18;98315.38;5012144;28;20175;-85
2023/07/31 00:50:33;;;;;;;4.07;0.93;;;;;;;26.73;45.81;98328.41;5012103;28;20591;-85
2023/07/31 00:53:00;;;;;;;1.83;0.80;;;;;;;26.66;46.18;98322.19;5013090;28;20171;-85
2023/07/31 00:55:27;;;;;;;2.73;0.90;;;;;;;26.65;46.40;98323.25;5013050;28;20217;-85
2023/07/31 00:57:55;;;;;;;3.53;1.10;;;;;;;26.52;47.50;98317.81;5012074;28;20604;-85
2023/07/31 01:00:21;;;;;;;1.87;0.70;;;;;;;26.49;47.38;98315.53;5015923;28;20652;-85
2023/07/31 01:02:47;;;;;;;1.40;0.80;;;;;;;26.59;47.47;98307.91;5017327;28;20198;-84
2023/07/31 01:05:13;;;;;;;1.47;0.67;;;;;;;26.54;47.62;98321.13;5019191;28;20277;-85
2023/07/31 01:08:04;;;;;;;1.53;0.90;;;;;;;26.31;48.81;98313.38;5018889;28;20261;-85
2023/07/31 01:10:41;;;;;;;3.27;0.87;;;;;;;26.23;49.11;98313.56;5036249;28;20247;-85
2023/07/31 01:13:08;;;;;;;2.77;0.77;;;;;;;26.37;48.69;98309.88;5018882;28;20181;-85
2023/07/31 01:15:35;;;;;;;1.77;0.50;;;;;;;26.44;48.78;98318.78;5018674;28;20236;-85
2023/07/31 01:18:02;;;;;;;1.83;0.63;;;;;;;26.39;49.10;98313.19;5036409;28;20189;-85
2023/07/31 01:20:30;;;;;;;4.10;1.07;;;;;;;26.39;49.34;98326.63;5036264;28;20194;-85
2023/07/31 01:23:11;;;;;;;1.30;0.67;;;;;;;26.50;49.15;98314.47;5035861;28;20170;-84
2023/07/31 01:25:54;;;;;;;2.90;0.63;;;;;;;26.51;49.43;98316.16;5018616;28;20265;-85
2023/07/31 01:28:27;;;;;;;2.67;0.70;;;;;;;26.49;49.39;98331.66;5018590;28;20608;-84
2023/07/31 01:30:57;;;;;;;2.73;0.70;;;;;;;26.53;49.49;98330.22;5018549;28;20166;-85
2023/07/31 01:33:23;;;;;;;4.63;0.70;;;;;;;26.53;49.64;98338.28;5036125;28;20300;-85
2023/07/31 01:35:49;;;;;;;2.13;0.80;;;;;;;26.54;49.62;98337.25;5035811;28;20178;-84
2023/07/31 01:38:15;;;;;;;1.87;0.77;;;;;;;26.48;49.99;98340.72;5035758;28;20233;-84
2023/07/31 01:40:43;;;;;;;1.57;0.80;;;;;;;26.48;49.91;98338.03;5035656;28;20198;-85
2023/07/31 01:43:10;;;;;;;1.93;0.70;;;;;;;26.52;49.64;98337.44;5035714;28;20214;-85
2023/07/31 01:45:35;;;;;;;3.73;1.00;;;;;;;26.60;49.10;98339.13;5018155;28;20186;-85
2023/07/31 01:48:02;;;;;;;3.07;0.90;;;;;;;26.62;49.39;98335.22;5035597;28;20174;-84
2023/07/31 01:50:27;;;;;;;1.80;0.70;;;;;;;26.62;49.28;98345.97;5018095;28;20294;-85
2023/07/31 01:52:54;;;;;;;1.70;0.60;;;;;;;26.65;49.00;98344.75;5035459;28;20249;-85
2023/07/31 01:55:21;;;;;;;4.73;0.80;;;;;;;26.53;49.92;98343.66;5035442;28;20530;-85
2023/07/31 01:57:46;;;;;;;2.57;0.70;;;;;;;26.43;50.16;98340.50;5035677;28;20174;-85
2023/07/31 02:00:12;;;;;;;1.43;0.63;;;;;;;26.41;49.83;98339.88;5035295;28;20202;-85
2023/07/31 02:02:37;;;;;;;3.17;1.00;;;;;;;26.42;49.71;98345.03;5035138;28;20186;-84
2023/07/31 02:05:03;;;;;;;1.63;0.73;;;;;;;26.38;50.19;98342.97;5035156;28;20265;-84
2023/07/31 02:07:28;;;;;;;2.53;0.70;;;;;;;26.31;49.97;98331.38;5035079;28;20183;-85
2023/07/31 02:09:54;;;;;;;4.50;0.63;;;;;;;26.29;50.08;98333.41;5017178;28;20171;-84
2023/07/31 02:12:20;;;;;;;2.17;0.97;;;;;;;26.28;49.75;98334.44;5034585;28;20535;-84
2023/07/31 02:14:47;;;;;;;1.53;0.57;;;;;;;26.29;49.79;98336.94;5017605;28;20186;-85
2023/07/31 02:17:14;;;;;;;2.03;0.80;;;;;;;26.22;50.49;98341.44;5035070;28;20181;-84
2023/07/31 02:19:41;;;;;;;1.67;0.70;;;;;;;26.16;50.32;98337.69;5017497;28;20660;-85
2023/07/31 02:22:07;;;;;;;13.33;7.17;;;;;;;26.19;50.46;98337.31;5034782;28;20206;-85
2023/07/31 02:24:33;;;;;;;15.47;8.60;;;;;;;26.15;50.41;98349.44;5034868;28;20185;-84
2023/07/31 02:26:58;;;;;;;11.63;6.47;;;;;;;26.13;50.73;98345.31;5034723;28;20652;-85
2023/07/31 02:29:23;;;;;;;4.93;2.80;;;;;;;26.06;50.90;98337.19;5017378;28;20229;-84
2023/07/31 02:31:50;;;;;;;3.57;1.33;;;;;;;26.02;50.77;98335.91;5017313;28;20183;-85
2023/07/31 02:34:15;;;;;;;2.17;1.10;;;;;;;26.01;51.28;98342.34;5017283;28;20216;-85
2023/07/31 02:36:41;;;;;;;3.53;1.90;;;;;;;26.05;50.98;98338.22;5034942;28;20253;-85
2023/07/31 02:39:07;;;;;;;3.17;1.93;;;;;;;26.09;50.87;98334.13;5017115;28;20613;-85
2023/07/31 02:41:34;;;;;;;2.17;1.03;;;;;;;26.08;51.11;98332.44;5034869;28;20186;-85
2023/07/31 02:43:59;;;;;;;2.53;0.90;;;;;;;26.06;51.27;98323.75;5034530;28;20217;-85
2023/07/31 02:46:26;;;;;;;3.20;1.00;;;;;;;26.03;50.84;98329.53;5034304;28;20617;-85
2023/07/31 02:48:51;;;;;;;4.33;0.77;;;;;;;25.91;51.02;98330.28;5017019;28;20185;-85
2023/07/31 02:51:18;;;;;;;1.27;0.67;;;;;;;25.89;50.73;98343.88;5016985;28;20182;-84
2023/07/31 02:53:44;;;;;;;2.27;0.80;;;;;;;25.73;50.76;98344.22;5016923;28;20174;-84
2023/07/31 02:56:09;;;;;;;4.07;0.70;;;;;;;25.65;50.49;98347.06;5034573;28;20535;-84
2023/07/31 02:58:34;;;;;;;2.17;0.83;;;;;;;25.58;50.21;98336.25;5034228;28;20216;-85
2023/07/31 03:01:00;;;;;;;4.83;1.10;;;;;;;25.56;50.61;98337.47;5034640;28;20218;-85
2023/07/31 03:03:25;;;;;;;2.60;1.10;;;;;;;25.53;50.53;98332.47;5033882;28;20574;-85
2023/07/31 03:05:51;;;;;;;1.53;0.73;;;;;;;25.52;50.87;98336.22;5034702;28;20163;-85
2023/07/31 03:08:16;;;;;;;4.17;1.00;;;;;;;25.56;50.68;98332.09;5034102;28;20594;-85
2023/07/31 03:10:41;;;;;;;1.97;0.77;;;;;;;25.63;50.36;98344.53;5016643;28;20711;-85
2023/07/31 03:13:08;;;;;;;1.50;0.60;;;;;;;25.68;50.28;98346.66;5034556;28;20175;-84
2023/07/31 03:15:33;;;;;;;3.93;0.90;;;;;;;25.69;50.11;98340.25;5016530;28;20687;-84
2023/07/31 03:18:00;;;;;;;2.33;0.90;;;;;;;25.64;50.84;98335.47;5033839;28;20186;-85
2023/07/31 03:20:27;;;;;;;3.23;1.17;;;;;;;25.61;50.96;98340.41;5034378;28;20204;-85
2023/07/31 03:22:53;;;;;;;2.50;1.17;;;;;;;25.67;50.46;98344.16;5016098;28;20541;-85
2023/07/31 03:25:18;;;;;;;2.93;0.63;;;;;;;25.68;50.51;98354.72;5033745;28;20182;-85
2023/07/31 03:27:44;;;;;;;4.23;1.03;;;;;;;25.55;51.07;98354.63;5033748;28;20616;-85
2023/07/31 03:30:10;;;;;;;4.43;1.20;;;;;;;25.55;51.16;98351.94;5033994;28;20175;-84
2023/07/31 03:32:36;;;;;;;1.63;0.90;;;;;;;25.52;51.42;98346.94;5016157;28;20644;-85
2023/07/31 03:35:02;;;;;;;3.83;0.90;;;;;;;25.50;51.84;98357.03;5016215;28;20547;-85
2023/07/31 03:37:27;;;;;;;2.83;1.00;;;;;;;25.51;51.83;98362.22;5033582;28;20629;-84
2023/07/31 03:39:53;;;;;;;1.87;0.60;;;;;;;25.49;52.14;98350.84;5033494;28;20293;-84
2023/07/31 03:42:19;;;;;;;2.40;0.80;;;;;;;25.44;52.62;98344.38;5033776;28;20210;-85
2023/07/31 03:44:45;;;;;;;2.93;0.97;;;;;;;25.44;52.94;98349.72;5033226;28;20244;-85
2023/07/31 03:47:11;;;;;;;1.23;0.80;;;;;;;25.46;52.79;98355.75;5033451;28;20186;-84
2023/07/31 03:49:38;;;;;;;3.00;1.07;;;;;;;25.55;52.12;98352.72;5033398;28;20174;-85
2023/07/31 03:52:05;;;;;;;1.83;0.90;;;;;;;25.57;52.45;98356.06;5033960;28;20174;-84
2023/07/31 03:54:30;;;;;;;3.30;1.30;;;;;;;25.44;53.11;98350.56;5033350;28;20269;-84
2023/07/31 03:56:56;;;;;;;2.67;1.00;;;;;;;25.46;53.10;98342.34;5015991;28;20257;-85
2023/07/31 03:59:21;;;;;;;4.37;0.97;;;;;;;25.53;53.16;98343.22;5015853;28;20709;-85
2023/07/31 04:01:48;;;;;;;1.87;0.90;;;;;;;25.57;52.76;98341.81;5033236;28;20174;-85
2023/07/31 04:04:13;;;;;;;3.23;0.97;;;;;;;25.62;52.80;98334.00;5013294;28;20280;-85
2023/07/31 04:06:39;;;;;;;2.23;0.90;;;;;;;25.66;52.93;98337.94;5013453;28;20183;-85
2023/07/31 04:09:04;;;;;;;2.00;0.93;;;;;;;25.70;52.54;98341.91;4996182;28;20175;-85
2023/07/31 04:11:31;;;;;;;2.60;1.07;;;;;;;25.69;52.52;98352.84;5021152;28;20516;-84
2023/07/31 04:13:56;;;;;;;2.73;1.10;;;;;;;25.79;52.49;98348.78;5032742;28;20316;-85
2023/07/31 04:16:22;;;;;;;2.83;1.07;;;;;;;25.82;52.40;98355.63;5015704;28;20265;-85
2023/07/31 04:18:47;;;;;;;4.73;1.30;;;;;;;25.86;52.22;98352.38;5033592;28;20166;-85
2023/07/31 04:21:13;;;;;;;3.37;1.20;;;;;;;25.90;52.42;98356.31;5033096;28;20680;-85
2023/07/31 04:23:38;;;;;;;2.60;1.10;;;;;;;25.96;52.50;98354.69;5033048;28;20174;-85
2023/07/31 04:26:03;;;;;;;3.73;1.07;;;;;;;25.94;52.42;98360.25;5033033;28;20648;-84
2023/07/31 04:28:31;;;;;;;2.80;1.00;;;;;;;25.93;52.25;98361.28;5015566;28;20521;-85
2023/07/31 04:30:57;;;;;;;1.30;0.80;;;;;;;25.92;52.32;98366.84;5033190;28;20170;-85
2023/07/31 04:37:03;;;;;;;2.17;1.00;;;;;;;25.97;52.09;98373.28;4957288;29;20191;-84
2023/07/31 04:39:29;;;;;;;4.97;1.13;;;;;;;26.04;51.62;98379.53;4957017;29;20205;-84
2023/07/31 04:41:54;;;;;;;3.93;1.20;;;;;;;26.08;50.86;98378.13;5024074;28;20220;-84
2023/07/31 04:44:20;;;;;;;3.50;1.00;;;;;;;26.13;50.60;98374.84;5019326;28;20273;-85
2023/07/31 04:46:45;;;;;;;1.47;0.70;;;;;;;26.16;50.61;98391.41;5036974;28;20178;-84
2023/07/31 04:49:11;;;;;;;2.83;1.00;;;;;;;26.21;50.16;98390.81;5036938;28;20209;-85
2023/07/31 04:51:37;;;;;;;3.83;1.40;;;;;;;26.34;48.99;98392.75;5019174;28;20195;-84
2023/07/31 04:54:02;;;;;;;1.23;0.70;;;;;;;26.45;49.04;98402.94;5036578;28;20305;-84
2023/07/31 04:56:28;;;;;;;3.07;0.97;;;;;;;26.50;48.86;98397.78;5036598;28;20178;-84
2023/07/31 04:58:53;;;;;;;2.53;1.00;;;;;;;26.48;48.30;98405.25;5036460;28;20635;-84
2023/07/31 05:01:18;;;;;;;2.27;0.90;;;;;;;26.54;48.27;98402.59;5036573;28;20645;-84
2023/07/31 05:03:44;;;;;;;3.23;1.00;;;;;;;26.48;48.19;98400.69;5018916;28;20277;-84
2023/07/31 05:06:09;;;;;;;2.17;0.90;;;;;;;26.63;48.29;98397.84;5019008;28;20715;-84
2023/07/31 05:08:35;;;;;;;4.90;1.90;;;;;;;26.72;47.76;98396.66;5025316;28;20538;-84
2023/07/31 05:11:00;;;;;;;3.70;0.90;;;;;;;26.74;47.46;98408.06;5018920;28;20186;-84
2023/07/31 05:13:25;;;;;;;3.83;0.97;;;;;;;26.84;47.28;98413.91;5036147;28;20174;-84
2023/07/31 05:15:51;;;;;;;1.73;0.70;;;;;;;26.94;47.43;98438.56;5036493;28;20178;-84
2023/07/31 05:18:16;;;;;;;2.70;1.07;;;;;;;26.84;47.24;98446.19;5018790;28;20177;-84
2023/07/31 05:20:42;;;;;;;1.57;0.80;;;;;;;26.55;48.49;98451.78;5036597;28;20208;-84
2023/07/31 05:23:08;;;;;;;1.83;0.87;;;;;;;26.57;48.42;98461.31;5036379;28;20197;-85
2023/07/31 05:25:34;;;;;;;2.33;1.17;;;;;;;26.17;50.08;98468.31;5018640;28;20170;-84
2023/07/31 05:27:59;;;;;;;3.10;1.17;;;;;;;26.16;51.41;98477.38;5036010;28;20170;-86
2023/07/31 05:30:25;;;;;;;2.07;1.00;;;;;;;26.23;51.63;98485.50;5035622;28;20197;-86
2023/07/31 05:32:50;;;;;;;4.10;1.63;;;;;;;26.19;52.78;98490.44;5003238;28;20171;-86
2023/07/31 05:35:16;;;;;;;2.90;1.50;;;;;;;26.29;52.93;98494.63;5022464;28;20189;-85
2023/07/31 05:37:41;;;;;;;5.43;1.73;;;;;;;26.15;53.23;98501.78;5035653;28;20206;-85
2023/07/31 05:40:07;;;;;;;3.17;1.60;;;;;;;26.08;54.64;98498.97;5035708;28;20567;-84
2023/07/31 05:42:32;;;;;;;4.10;1.80;;;;;;;26.15;55.01;98509.84;5035948;28;20596;-85
2023/07/31 05:44:58;;;;;;;4.80;2.43;;;;;;;25.97;56.29;98506.75;5035483;28;20659;-85
2023/07/31 05:47:23;;;;;;;4.37;2.00;;;;;;;25.79;56.68;98503.66;5018101;28;20182;-85
2023/07/31 05:49:49;;;;;;;3.70;1.90;;;;;;;25.91;56.39;98508.34;5035584;28;20216;-85
2023/07/31 05:52:15;;;;;;;10.70;2.13;;;;;;;25.81;57.59;98515.91;5035810;28;20178;-86
2023/07/31 05:54:41;;;;;;;7.57;2.20;;;;;;;25.73;57.96;98510.66;5018082;28;20629;-85
2023/07/31 05:57:06;;;;;;;6.50;2.53;;;;;;;25.65;58.38;98518.84;5035424;28;20546;-85
2023/07/31 05:59:33;;;;;;;5.57;2.83;;;;;;;25.86;58.06;98496.53;5035334;28;20195;-86
2023/07/31 06:01:58;;;;;;;4.47;2.50;;;;;;;25.89;58.58;98505.00;5035196;28;20178;-85
2023/07/31 06:04:25;;;;;;;6.10;2.80;;;;;;;25.97;58.33;98509.44;5035606;28;20197;-84
2023/07/31 06:06:51;;;;;;;4.27;2.27;;;;;;;25.78;59.59;98515.44;5029266;28;20292;-84
2023/07/31 06:09:16;;;;;;;3.70;2.10;;;;;;;25.76;60.48;98512.13;5034783;28;20624;-85
2023/07/31 06:11:42;;;;;;;3.80;2.37;;;;;;;25.79;60.68;98515.25;5034886;28;20606;-85
2023/07/31 06:14:07;;;;;;;5.03;2.73;;;;;;;25.53;62.36;98526.53;5034817;28;20183;-84
2023/07/31 06:16:32;;;;;;;6.87;2.83;;;;;;;25.68;62.21;98529.19;5034830;28;20711;-83
2023/07/31 06:18:58;;;;;;;5.10;3.00;;;;;;;25.53;64.47;98534.59;5034646;28;20189;-83
2023/07/31 06:21:23;;;;;;;5.93;2.83;;;;;;;25.50;64.90;98537.66;5034734;28;20265;-82
2023/07/31 06:23:49;;;;;;;4.47;2.47;;;;;;;25.71;63.66;98538.72;5034613;28;20603;-82
2023/07/31 06:26:14;;;;;;;5.67;2.20;;;;;;;25.72;63.93;98524.25;5028527;28;20184;-83
2023/07/31 06:28:39;;;;;;;4.20;2.20;;;;;;;25.63;64.61;98523.53;5034461;28;20170;-82
2023/07/31 06:31:05;;;;;;;3.70;2.10;;;;;;;25.64;64.69;98519.84;5024907;28;20553;-82
2023/07/31 06:33:31;;;;;;;4.57;2.60;;;;;;;25.62;64.63;98519.22;5017021;28;20170;-82
2023/07/31 06:35:56;;;;;;;4.50;2.23;;;;;;;25.61;65.24;98518.38;5034219;28;20182;-83
2023/07/31 06:38:26;;;;;;;3.77;2.60;;;;;;;25.73;64.39;98518.72;5034384;28;20174;-83
2023/07/31 06:40:52;;;;;;;5.27;2.77;;;;;;;25.77;64.53;98521.84;5034288;28;20194;-83
2023/07/31 06:43:17;;;;;;;4.67;2.93;;;;;;;25.73;65.06;98521.41;5034294;28;20178;-83
2023/07/31 06:45:43;;;;;;;6.20;2.87;;;;;;;25.79;64.80;98512.56;5016715;28;20178;-83
2023/07/31 06:48:08;;;;;;;5.23;3.00;;;;;;;25.82;64.60;98508.66;5016677;28;20186;-83
2023/07/31 06:50:34;;;;;;;10.00;2.67;;;;;;;25.83;64.60;98508.50;5034485;28;20511;-83
2023/07/31 06:52:59;;;;;;;5.07;2.30;;;;;;;25.88;64.48;98506.06;5034137;28;20187;-83
2023/07/31 06:55:25;;;;;;;4.70;2.60;;;;;;;25.94;64.87;98507.13;5034079;28;20216;-83
2023/07/31 06:57:52;;;;;;;5.53;3.17;;;;;;;25.93;65.18;98505.47;5016015;28;20182;-84
2023/07/31 07:00:19;;;;;;;5.27;2.67;;;;;;;25.88;65.47;98500.69;5011571;28;20277;-84
2023/07/31 07:02:47;;;;;;;4.73;2.47;;;;;;;25.78;65.57;98502.88;5033942;28;20174;-84
2023/07/31 07:05:13;;;;;;;4.97;2.43;;;;;;;25.75;66.15;98508.63;5021591;28;20325;-84
2023/07/31 07:07:38;;;;;;;6.50;2.80;;;;;;;25.74;65.95;98506.94;5013253;28;20186;-84
2023/07/31 07:10:04;;;;;;;8.50;3.30;;;;;;;25.76;66.29;98509.44;5029378;28;20253;-83
2023/07/31 07:12:31;;;;;;;4.40;2.57;;;;;;;25.75;66.50;98511.28;5010210;28;20175;-84
2023/07/31 07:14:59;;;;;;;4.63;2.57;;;;;;;25.82;66.15;98514.03;4997590;28;20183;-84
2023/07/31 07:17:31;;;;;;;4.80;2.53;;;;;;;25.84;65.78;98517.38;5006201;28;20262;-84
2023/07/31 07:19:57;;;;;;;4.53;2.93;;;;;;;25.86;66.80;98515.31;5013177;28;20198;-84
2023/07/31 07:22:23;;;;;;;5.20;2.70;;;;;;;25.86;66.99;98513.47;5012222;28;20167;-84
2023/07/31 07:24:48;;;;;;;6.27;3.30;;;;;;;25.74;68.15;98520.34;5000812;28;20191;-84
2023/07/31 07:27:14;;;;;;;6.47;3.23;;;;;;;25.83;68.29;98521.06;5018865;28;20272;-83
2023/07/31 07:29:40;;;;;;;5.77;3.40;;;;;;;25.87;68.21;98525.03;5008046;28;20171;-84
2023/07/31 07:32:06;;;;;;;5.93;3.10;;;;;;;25.90;68.87;98522.78;5016039;28;20289;-84
2023/07/31 07:34:31;;;;;;;4.80;2.80;;;;;;;25.91;69.16;98529.00;4994507;28;20188;-84
2023/07/31 07:36:56;;;;;;;5.10;3.40;;;;;;;25.93;69.58;98532.31;4993975;28;20181;-84
2023/07/31 07:39:22;;;;;;;4.10;2.77;;;;;;;26.04;69.82;98515.69;4994410;28;20676;-84
2023/07/31 07:41:48;;;;;;;6.40;3.17;;;;;;;26.17;69.47;98516.66;5012081;28;20181;-84
2023/07/31 07:44:14;;;;;;;6.87;3.07;;;;;;;26.31;68.94;98514.09;5020986;28;20182;-84
2023/07/31 07:46:40;;;;;;;8.37;3.10;;;;;;;26.33;67.35;98518.25;5012744;28;20241;-84
2023/07/31 07:49:06;;;;;;;4.53;2.70;;;;;;;26.39;67.38;98506.69;5028569;28;20550;-85
2023/07/31 07:51:31;;;;;;;5.27;2.70;;;;;;;26.52;67.06;98504.09;5011646;28;20266;-85
2023/07/31 07:53:57;;;;;;;7.90;3.20;;;;;;;26.66;67.15;98515.75;4987187;28;20198;-84
2023/07/31 07:56:24;;;;;;;4.70;2.63;;;;;;;26.75;67.92;98512.75;4988270;28;20210;-84
2023/07/31 07:58:50;;;;;;;5.47;3.23;;;;;;;26.87;67.87;98509.50;5018771;28;20187;-85
2023/07/31 08:01:15;;;;;;;6.00;3.13;;;;;;;27.00;66.32;98499.63;5012113;28;20195;-85
2023/07/31 08:03:41;;;;;;;7.90;3.00;;;;;;;27.03;67.72;98495.72;4971062;28;1276276;-84
2023/07/31 08:06:09;;;;;;;8.33;3.70;;;;;;;27.14;67.03;98500.53;5039206;28;20626;-85
2023/07/31 08:08:34;;;;;;;5.40;2.80;;;;;;;27.14;68.37;98497.84;5049808;28;20174;-85
2023/07/31 08:11:00;;;;;;;4.47;2.57;;;;;;;27.13;68.42;98488.94;5034969;28;20233;-85
2023/07/31 08:13:25;;;;;;;4.90;2.90;;;;;;;27.34;66.50;98490.66;5026332;28;20286;-84
2023/07/31 08:15:51;;;;;;;4.87;3.20;;;;;;;27.47;65.71;98497.97;5030671;28;20190;-84
2023/07/31 08:18:17;;;;;;;5.13;2.73;;;;;;;27.56;65.80;98494.91;5012878;28;20186;-84
2023/07/31 08:20:43;;;;;;;6.28;3.67;;;;;;;27.70;65.08;98501.94;5016120;28;20210;-85
2023/07/31 08:23:08;;;;;;;5.27;2.83;;;;;;;27.78;64.58;98501.75;5024955;28;20684;-84
2023/07/31 08:25:35;;;;;;;6.10;3.10;;;;;;;27.77;65.09;98513.59;5015004;28;20194;-85
2023/07/31 08:28:01;;;;;;;5.45;3.28;;;;;;;27.77;67.51;98512.75;5030488;28;20186;-84
2023/07/31 08:30:26;;;;;;;5.67;3.23;;;;;;;27.80;66.33;98517.72;5032198;28;20177;-85
2023/07/31 08:32:52;;;;;;;6.93;3.50;;;;;;;28.11;64.83;98519.84;5010736;28;20183;-85
2023/07/31 08:35:17;;;;;;;4.78;3.00;;;;;;;28.21;65.84;98504.94;5014750;28;20272;-85
2023/07/31 08:37:43;;;;;;;5.68;3.20;;;;;;;28.40;67.17;98514.03;5009278;28;20201;-85
2023/07/31 08:40:09;;;;;;;5.60;3.67;;;;;;;28.45;65.87;98504.28;5031920;28;20697;-85
2023/07/31 08:42:43;;;;;;;6.05;2.72;;;;;;;28.67;64.74;98507.59;5032232;28;20655;-85
2023/07/31 08:45:11;;;;;;;4.55;2.65;;;;;;;29.05;60.86;98516.63;5033185;28;20405;-85
2023/07/31 08:47:36;;;;;;;6.00;3.17;;;;;;;29.37;59.33;98514.88;5015425;28;20190;-85
2023/07/31 08:50:02;;;;;;;5.07;3.55;;;;;;;29.32;61.59;98514.69;5032871;28;20716;-85
2023/07/31 08:52:28;;;;;;;4.95;3.25;;;;;;;29.80;56.30;98520.44;5033079;28;20175;-85
2023/07/31 08:54:53;;;;;;;5.57;3.42;;;;;;;30.17;56.83;98513.31;5015291;28;20245;-85
2023/07/31 08:57:19;;;;;;;5.03;3.42;;;;;;;30.12;59.03;98515.84;5014308;28;20616;-86
2023/07/31 08:59:45;;;;;;;6.05;3.80;;;;;;;30.53;56.30;98494.50;5031450;28;20221;-85
2023/07/31 09:02:13;;;;;;;6.18;4.05;;;;;;;30.48;55.51;98502.47;5014105;28;20178;-85
2023/07/31 09:04:39;;;;;;;6.18;3.88;;;;;;;30.25;56.01;98505.75;5031183;28;20316;-85
2023/07/31 09:07:05;;;;;;;5.82;3.63;;;;;;;30.39;55.22;98506.50;5031471;28;20191;-85
2023/07/31 09:09:31;;;;;;;4.32;2.90;;;;;;;30.61;54.93;98510.44;5013902;28;20177;-85
2023/07/31 09:12:01;;;;;;;7.00;3.88;;;;;;;30.98;54.83;98505.91;5032212;28;20174;-85
2023/07/31 09:14:26;;;;;;;4.88;3.30;;;;;;;31.11;55.38;98510.34;5015211;28;20281;-85
2023/07/31 09:16:56;;;;;;;5.28;3.20;;;;;;;31.10;54.80;98509.53;5032576;28;20257;-85
2023/07/31 09:19:29;;;;;;;6.15;4.00;;;;;;;30.67;54.81;98503.31;5015069;28;20284;-85
2023/07/31 09:21:55;;;;;;;5.50;3.40;;;;;;;30.36;54.65;98507.78;5018665;28;20254;-85
2023/07/31 09:24:28;;;;;;;4.78;3.22;;;;;;;30.78;54.96;98506.13;5018649;28;20174;-86
2023/07/31 09:26:58;;;;;;;6.47;3.67;;;;;;;31.16;52.38;98496.97;5036290;28;20631;-85
2023/07/31 09:29:24;;;;;;;5.97;3.67;;;;;;;31.72;51.21;98500.19;5036258;28;20220;-85
2023/07/31 09:31:50;;;;;;;5.95;3.55;;;;;;;31.82;48.95;98499.59;5018517;28;20174;-85
2023/07/31 09:34:16;;;;;;;4.80;3.22;;;;;;;31.59;49.86;98498.50;5035829;28;20221;-85
2023/07/31 09:36:50;;;;;;;4.75;3.13;;;;;;;31.37;48.92;98499.16;5035690;28;20253;-86
2023/07/31 09:39:17;;;;;;;4.30;3.38;;;;;;;31.59;47.85;98493.06;5018280;28;20236;-86
2023/07/31 09:41:47;;;;;;;4.95;3.33;;;;;;;31.68;50.05;98493.56;5018289;28;20612;-86
2023/07/31 09:44:13;;;;;;;5.03;3.40;;;;;;;31.45;52.08;98493.44;5035494;28;20186;-86
2023/07/31 09:46:38;;;;;;;6.03;3.72;;;;;;;31.61;49.75;98490.13;5018203;28;20174;-86
2023/07/31 09:49:09;;;;;;;5.20;3.15;;;;;;;32.08;47.68;98491.09;5035564;28;20173;-86
2023/07/31 09:51:38;;;;;;;5.57;3.10;;;;;;;32.56;46.35;98493.63;5036129;28;20165;-86
2023/07/31 09:54:15;;;;;;;5.80;3.78;;;;;;;31.98;47.65;98497.06;5035412;28;20185;-86
2023/07/31 09:56:48;;;;;;;5.88;3.63;;;;;;;31.90;48.20;98500.09;5018018;28;20647;-86
2023/07/31 09:59:18;;;;;;;4.78;3.13;;;;;;;31.37;50.25;98499.16;5035611;28;20229;-86
2023/07/31 10:01:46;;;;;;;5.78;3.10;;;;;;;31.37;48.79;98507.28;5035351;28;20249;-86
2023/07/31 10:04:13;;;;;;;4.97;3.45;;;;;;;31.96;49.46;98492.94;5017658;28;20561;-86
2023/07/31 10:06:40;;;;;;;5.47;3.25;;;;;;;32.49;46.73;98493.72;5035250;28;20170;-86
2023/07/31 10:09:08;;;;;;;4.20;2.83;;;;;;;32.89;43.83;98488.38;5035062;28;20684;-86
2023/07/31 10:11:41;;;;;;;5.95;3.25;;;;;;;33.06;44.38;98489.34;5035140;28;20178;-86
2023/07/31 10:14:07;;;;;;;5.57;3.30;;;;;;;33.38;43.91;98487.81;5035279;28;20190;-86
2023/07/31 10:16:35;;;;;;;4.93;3.05;;;;;;;33.57;43.85;98485.75;5034932;28;20178;-86
2023/07/31 10:19:01;;;;;;;5.45;2.83;;;;;;;33.71;43.98;98484.38;5034935;28;20177;-86
2023/07/31 10:21:27;;;;;;;5.88;3.10;;;;;;;33.41;43.46;98489.22;5034973;28;20170;-86
2023/07/31 10:23:54;;;;;;;5.05;3.25;;;;;;;33.68;44.29;98475.88;5034755;28;20188;-86
2023/07/31 10:26:23;;;;;;;5.07;3.25;;;;;;;33.86;41.39;98481.91;5034883;28;20182;-87
2023/07/31 10:28:50;;;;;;;5.75;2.92;;;;;;;33.60;40.85;98468.94;5017368;28;20568;-87
2023/07/31 10:31:16;;;;;;;5.15;2.97;;;;;;;32.83;41.58;98473.06;5016410;28;20684;-87
2023/07/31 10:33:42;;;;;;;5.57;3.03;;;;;;;32.59;44.66;98461.41;5017140;28;20175;-86
2023/07/31 10:36:17;;;;;;;4.40;2.80;;;;;;;33.21;43.88;98459.75;5017233;28;20181;-86
2023/07/31 10:38:42;;;;;;;4.40;3.10;;;;;;;33.24;42.82;98462.00;5034657;28;20328;-87
2023/07/31 10:41:09;;;;;;;4.53;3.03;;;;;;;33.21;42.54;98457.03;5017422;28;20201;-87
2023/07/31 10:43:38;;;;;;;3.80;2.45;;;;;;;33.24;41.35;98453.84;5034516;28;20667;-87
2023/07/31 10:46:13;;;;;;;5.45;3.15;;;;;;;32.51;42.45;98448.19;5035765;28;20667;-87
2023/07/31 10:48:41;;;;;;;5.18;3.10;;;;;;;33.15;42.65;98449.06;5017027;28;20174;-87
2023/07/31 10:51:11;;;;;;;5.43;2.90;;;;;;;33.29;41.50;98443.06;5016897;28;20678;-87
2023/07/31 10:53:38;;;;;;;4.80;3.10;;;;;;;33.59;41.13;98436.59;5034611;28;20182;-87
2023/07/31 10:56:05;;;;;;;4.40;2.97;;;;;;;32.87;43.64;98432.69;5034575;28;20706;-87
2023/07/31 10:58:34;;;;;;;5.05;2.90;;;;;;;33.49;42.87;98431.78;5034290;28;20261;-86
2023/07/31 11:01:04;;;;;;;4.40;2.72;;;;;;;32.98;43.68;98427.22;5034411;28;20247;-87
2023/07/31 11:03:56;;;;;;;3.97;2.83;;;;;;;33.41;42.08;98438.41;5016653;28;20174;-87
2023/07/31 11:06:22;;;;;;;4.47;2.58;;;;;;;33.08;41.66;98421.19;5016558;28;20182;-87
2023/07/31 11:08:49;;;;;;;4.35;2.90;;;;;;;33.10;40.51;98421.78;5034245;28;20181;-87
2023/07/31 11:11:16;;;;;;;3.35;2.40;;;;;;;33.52;41.11;98427.75;5016627;28;20533;-88
2023/07/31 11:13:44;;;;;;;6.10;3.33;;;;;;;33.41;38.92;98421.28;5016613;28;20189;-87
2023/07/31 11:16:12;;;;;;;4.03;2.60;;;;;;;33.90;40.75;98408.84;5017668;28;20186;-87
2023/07/31 11:18:45;;;;;;;4.68;2.72;;;;;;;33.95;38.73;98412.47;5034045;28;20178;-87
2023/07/31 11:21:21;;;;;;;4.88;2.67;;;;;;;33.93;39.87;98408.34;5016374;28;20198;-87
2023/07/31 11:23:57;;;;;;;4.50;3.10;;;;;;;34.02;39.11;98412.28;5034138;28;20165;-87
2023/07/31 11:26:24;;;;;;;5.35;2.95;;;;;;;33.83;39.86;98419.06;5034083;28;20515;-88
2023/07/31 11:28:50;;;;;;;6.20;2.72;;;;;;;34.46;39.58;98405.91;5034003;28;20182;-88
2023/07/31 11:31:16;;;;;;;4.90;2.85;;;;;;;34.39;38.01;98402.53;5016529;28;20612;-87
2023/07/31 11:33:41;;;;;;;4.05;2.47;;;;;;;34.81;38.51;98402.84;5030163;28;20183;-87
2023/07/31 11:36:14;;;;;;;3.85;2.50;;;;;;;34.80;37.00;98397.66;5016605;28;20173;-88